Terminal Aerodrome Forecast
Issued by NWS Wilmington, OH

Home | Current Version | Previous Version | Text Only | Print | Product List | Glossary On
Versions: 1 2 3 4 5 6 7 8 9 10 11 12 13 14 15 16 17 18 19 20 21 22 23
216
FTUS41 KILN 100538
TAFILN
TAF
KILN 100538Z 1006/1106 26014KT P6SM -SHSN OVC035
     FM101200 27014G22KT 1SM -SHSN OVC015
     FM101600 27016G24KT 4SM -SHSN OVC022
     FM101900 27015G23KT P6SM OVC025
     FM102300 28010KT P6SM OVC035=

USA.gov is the U.S. government's official web portal to all federal, state and local government web resources and services.